createdAt,value
2023-08-17T00:00:11.724Z,12.35
2023-08-17T00:01:14.712Z,15.43
2023-08-17T00:02:17.794Z,16.33
2023-08-17T00:03:20.915Z,23.85
2023-08-17T00:04:24.020Z,14.45
2023-08-17T00:05:27.945Z,16.33
2023-08-17T00:06:31.197Z,13.35
2023-08-17T00:07:34.782Z,16.50
2023-08-17T00:08:37.681Z,15.13
2023-08-17T00:09:41.133Z,18.92
2023-08-17T00:10:44.007Z,16.73
2023-08-17T00:11:46.988Z,14.25
2023-08-17T00:12:49.912Z,15.80
2023-08-17T00:13:52.983Z,13.95
2023-08-17T00:14:56.033Z,12.32
2023-08-17T00:15:59.159Z,15.77
2023-08-17T00:17:02.205Z,19.85
2023-08-17T00:18:05.460Z,14.55
2023-08-17T00:19:08.953Z,13.73
2023-08-17T00:20:12.612Z,12.88
2023-08-17T00:21:15.561Z,14.80
2023-08-17T00:22:18.519Z,19.80
2023-08-17T00:23:22.299Z,17.58
2023-08-17T00:24:25.317Z,12.20
2023-08-17T00:25:28.165Z,14.57
2023-08-17T00:26:31.242Z,19.02
2023-08-17T00:27:34.664Z,14.02
2023-08-17T00:28:38.323Z,11.43
2023-08-17T00:29:41.149Z,14.10
2023-08-17T00:30:44.263Z,22.35
2023-08-17T00:31:47.150Z,15.48
2023-08-17T00:32:50.064Z,18.50
2023-08-17T00:33:52.872Z,16.35
2023-08-17T00:34:55.767Z,14.40
2023-08-17T00:35:58.681Z,12.13
2023-08-17T00:37:01.641Z,11.93
2023-08-17T00:38:04.823Z,17.48
2023-08-17T00:39:08.033Z,12.32
2023-08-17T00:40:11.611Z,15.05
2023-08-17T00:41:14.715Z,14.15
2023-08-17T00:42:17.773Z,13.38
2023-08-17T00:43:20.751Z,12.50
2023-08-17T00:44:23.732Z,15.65
2023-08-17T00:45:28.157Z,17.20
2023-08-17T00:46:31.842Z,18.27
2023-08-17T00:47:34.970Z,17.50
2023-08-17T00:48:37.925Z,14.10
2023-08-17T00:49:41.252Z,13.00
2023-08-17T00:50:46.922Z,14.85
2023-08-17T00:51:49.927Z,18.08
2023-08-17T00:52:54.477Z,13.88
2023-08-17T00:54:00.259Z,19.20
2023-08-17T00:55:04.230Z,15.43
2023-08-17T00:56:07.580Z,18.20
2023-08-17T00:57:11.164Z,12.68
2023-08-17T00:58:15.352Z,11.93
2023-08-17T00:59:18.516Z,22.23
2023-08-17T01:00:21.729Z,12.75
2023-08-17T01:01:25.382Z,19.70
2023-08-17T01:02:28.657Z,13.57
2023-08-17T01:03:32.468Z,12.07
2023-08-17T01:04:35.512Z,19.42
2023-08-17T01:05:38.976Z,11.80
2023-08-17T01:06:41.960Z,12.85
2023-08-17T01:07:44.872Z,14.05
2023-08-17T01:08:48.406Z,17.08
2023-08-17T01:09:51.591Z,17.80
2023-08-17T01:11:20.392Z,13.62
2023-08-17T01:12:31.654Z,15.32
2023-08-17T01:13:46.767Z,15.02
2023-08-17T01:14:55.750Z,16.35
2023-08-17T01:16:01.504Z,16.27
2023-08-17T01:17:39.861Z,15.82
2023-08-17T01:18:45.006Z,15.13
2023-08-17T01:19:49.146Z,16.05
2023-08-17T01:20:54.772Z,15.73
2023-08-17T01:22:06.851Z,15.07
2023-08-17T01:23:10.601Z,17.15
2023-08-17T01:24:13.621Z,17.17
2023-08-17T01:25:16.642Z,14.48
2023-08-17T01:26:19.855Z,12.55
2023-08-17T01:27:23.063Z,16.05
2023-08-17T01:28:26.744Z,17.17
2023-08-17T01:29:29.978Z,19.10
2023-08-17T01:30:51.154Z,12.55
2023-08-17T01:32:31.291Z,18.83
2023-08-17T01:33:49.515Z,16.17
2023-08-17T01:35:03.043Z,14.63
2023-08-17T01:36:19.701Z,20.40
2023-08-17T01:37:25.135Z,13.23
2023-08-17T01:38:31.209Z,11.70
2023-08-17T01:39:41.056Z,14.57
2023-08-17T01:40:46.276Z,14.07
2023-08-17T01:41:49.697Z,12.93
2023-08-17T01:42:53.388Z,13.93
2023-08-17T01:43:58.401Z,14.10
2023-08-17T01:45:02.027Z,14.63
2023-08-17T01:46:05.189Z,14.35
2023-08-17T01:47:08.376Z,12.68
2023-08-17T01:48:11.454Z,12.88
2023-08-17T01:49:14.571Z,12.80
2023-08-17T01:50:17.589Z,16.17
2023-08-17T01:51:21.325Z,16.30
2023-08-17T01:52:27.801Z,25.02
2023-08-17T01:53:30.768Z,12.88
2023-08-17T01:54:34.139Z,15.20
2023-08-17T01:55:37.167Z,11.82
2023-08-17T01:56:40.263Z,12.15
2023-08-17T01:57:43.287Z,14.85
2023-08-17T01:58:46.379Z,10.85
2023-08-17T01:59:49.394Z,12.18
2023-08-17T02:00:52.491Z,13.05
2023-08-17T02:01:55.535Z,13.15
2023-08-17T02:02:58.484Z,15.38
2023-08-17T02:04:03.580Z,12.68
2023-08-17T02:05:06.901Z,14.43
2023-08-17T02:06:09.891Z,12.52
2023-08-17T02:07:12.876Z,17.92
2023-08-17T02:08:15.888Z,15.50
2023-08-17T02:09:18.881Z,12.65
2023-08-17T02:10:21.856Z,10.52
2023-08-17T02:11:24.807Z,12.65
2023-08-17T02:12:28.716Z,11.65
2023-08-17T02:13:31.901Z,11.90
2023-08-17T02:14:34.864Z,15.82
2023-08-17T02:15:41.415Z,16.15
2023-08-17T02:16:44.747Z,10.48
2023-08-17T02:17:47.695Z,12.73
2023-08-17T02:18:50.555Z,12.13
2023-08-17T02:19:53.591Z,12.63
2023-08-17T02:20:56.557Z,15.43
2023-08-17T02:21:59.874Z,13.68
2023-08-17T02:23:03.337Z,13.25
2023-08-17T02:24:06.777Z,10.65
2023-08-17T02:25:10.354Z,11.85
2023-08-17T02:26:13.317Z,14.02
2023-08-17T02:27:16.212Z,10.25
2023-08-17T02:28:19.258Z,9.68
2023-08-17T02:29:22.372Z,11.23
2023-08-17T02:30:25.306Z,13.00
2023-08-17T02:31:28.161Z,11.70
2023-08-17T02:32:31.136Z,15.98
2023-08-17T02:33:35.039Z,10.90
2023-08-17T02:34:37.890Z,13.13
2023-08-17T02:35:40.858Z,13.95
2023-08-17T02:36:43.839Z,10.02
2023-08-17T02:37:46.768Z,10.13
2023-08-17T02:38:49.723Z,12.65
2023-08-17T02:39:52.699Z,10.77
2023-08-17T02:40:55.639Z,12.85
2023-08-17T02:41:58.720Z,13.35
2023-08-17T02:43:01.700Z,11.93
2023-08-17T02:44:05.117Z,14.55
2023-08-17T02:45:09.796Z,16.02
2023-08-17T02:46:12.750Z,10.65
2023-08-17T02:47:15.916Z,9.63
2023-08-17T02:48:21.713Z,9.75
2023-08-17T02:49:24.613Z,17.42
2023-08-17T02:50:27.472Z,12.70
2023-08-17T02:51:30.367Z,15.52
2023-08-17T02:52:33.220Z,14.68
2023-08-17T02:53:36.173Z,13.30
2023-08-17T02:54:39.102Z,11.77
2023-08-17T02:55:42.100Z,16.52
2023-08-17T02:56:44.963Z,10.02
2023-08-17T02:57:47.806Z,20.40
2023-08-17T02:58:50.886Z,9.40
2023-08-17T02:59:53.799Z,10.35
2023-08-17T03:00:56.786Z,17.70
2023-08-17T03:01:59.635Z,14.65
2023-08-17T03:03:02.912Z,11.55
2023-08-17T03:04:06.192Z,13.15
2023-08-17T03:05:09.260Z,11.82
2023-08-17T03:06:12.230Z,13.50
2023-08-17T03:07:15.176Z,9.65
2023-08-17T03:08:18.034Z,12.35
2023-08-17T03:09:20.845Z,8.65
2023-08-17T03:10:24.317Z,12.60
2023-08-17T03:11:27.361Z,13.07
2023-08-17T03:12:30.627Z,10.68
2023-08-17T03:13:33.574Z,12.82
2023-08-17T03:14:36.967Z,9.13
2023-08-17T03:15:41.528Z,8.70
2023-08-17T03:16:44.611Z,10.05
2023-08-17T03:17:47.722Z,8.82
2023-08-17T03:18:50.626Z,10.63
2023-08-17T03:19:53.598Z,12.25
2023-08-17T03:20:56.670Z,14.45
2023-08-17T03:21:59.666Z,12.80
2023-08-17T03:23:02.634Z,12.00
2023-08-17T03:24:06.432Z,8.02
2023-08-17T03:25:09.963Z,12.73
2023-08-17T03:26:12.920Z,10.68
2023-08-17T03:27:15.928Z,10.57
2023-08-17T03:28:18.934Z,10.05
2023-08-17T03:29:21.869Z,10.00
2023-08-17T03:30:24.895Z,10.05
2023-08-17T03:31:27.894Z,14.52
2023-08-17T03:32:30.862Z,10.43
2023-08-17T03:33:33.887Z,8.30
2023-08-17T03:34:36.680Z,10.50
2023-08-17T03:35:39.560Z,15.77
2023-08-17T03:36:42.676Z,15.38
2023-08-17T03:37:46.590Z,15.05
2023-08-17T03:38:49.472Z,11.82
2023-08-17T03:39:52.549Z,10.50
2023-08-17T03:40:56.043Z,15.27
2023-08-17T03:41:58.967Z,13.62
2023-08-17T03:43:01.835Z,11.10
2023-08-17T03:44:07.482Z,14.55
2023-08-17T03:45:10.702Z,12.30
2023-08-17T03:46:13.639Z,11.43
2023-08-17T03:47:16.671Z,13.13
2023-08-17T03:48:19.708Z,8.15
2023-08-17T03:49:23.267Z,9.45
2023-08-17T03:50:29.429Z,9.25
2023-08-17T03:51:32.450Z,9.88
2023-08-17T03:52:35.442Z,13.13
2023-08-17T03:53:38.316Z,10.27
2023-08-17T03:54:41.184Z,10.57
2023-08-17T03:55:50.808Z,11.15
2023-08-17T03:56:53.667Z,11.00
2023-08-17T03:57:56.701Z,10.60
2023-08-17T03:58:59.711Z,11.40
2023-08-17T04:00:02.737Z,10.68
2023-08-17T04:01:08.064Z,16.02
2023-08-17T04:02:11.006Z,17.00
2023-08-17T04:03:13.873Z,11.23
2023-08-17T04:04:16.829Z,9.80
2023-08-17T04:05:19.826Z,13.13
2023-08-17T04:06:22.847Z,12.40
2023-08-17T04:07:26.307Z,8.85
2023-08-17T04:08:29.468Z,10.57
2023-08-17T04:09:35.122Z,11.63
2023-08-17T04:10:38.188Z,9.38
2023-08-17T04:11:41.211Z,9.05
2023-08-17T04:12:44.343Z,11.40
2023-08-17T04:13:47.201Z,8.38
2023-08-17T04:14:50.181Z,11.90
2023-08-17T04:15:54.327Z,11.63
2023-08-17T04:16:58.072Z,10.52
2023-08-17T04:18:01.081Z,15.70
2023-08-17T04:19:04.292Z,7.10
2023-08-17T04:20:08.067Z,8.65
2023-08-17T04:21:11.027Z,12.93
2023-08-17T04:22:14.100Z,12.20
2023-08-17T04:23:17.164Z,11.85
2023-08-17T04:24:20.114Z,15.50
2023-08-17T04:25:23.108Z,7.95
2023-08-17T04:26:26.402Z,9.15
2023-08-17T04:27:29.649Z,11.90
2023-08-17T04:28:32.637Z,12.05
2023-08-17T04:29:35.639Z,8.38
2023-08-17T04:30:39.739Z,9.95
2023-08-17T04:31:42.906Z,16.75
2023-08-17T04:32:46.240Z,8.80
2023-08-17T04:33:49.375Z,11.60
2023-08-17T04:34:54.724Z,14.25
2023-08-17T04:35:57.888Z,12.25
2023-08-17T04:37:00.855Z,16.17
2023-08-17T04:38:03.890Z,13.10
2023-08-17T04:39:06.954Z,9.98
2023-08-17T04:40:11.379Z,8.48
2023-08-17T04:41:14.415Z,13.43
2023-08-17T04:42:17.503Z,7.45
2023-08-17T04:43:20.315Z,16.75
2023-08-17T04:44:23.252Z,9.38
2023-08-17T04:45:26.364Z,7.05
2023-08-17T04:46:29.254Z,10.75
2023-08-17T04:47:32.378Z,7.12
2023-08-17T04:48:35.630Z,10.05
2023-08-17T04:49:38.401Z,10.35
2023-08-17T04:50:41.448Z,7.97
2023-08-17T04:51:44.263Z,9.80
2023-08-17T04:52:47.306Z,14.35
2023-08-17T04:53:50.190Z,18.33
2023-08-17T04:54:53.085Z,10.07
2023-08-17T04:55:56.120Z,10.93
2023-08-17T04:56:58.933Z,9.38
2023-08-17T04:58:01.759Z,10.52
2023-08-17T04:59:04.720Z,12.00
2023-08-17T05:00:11.478Z,10.18
2023-08-17T05:01:14.533Z,9.82
2023-08-17T05:02:17.660Z,9.93
2023-08-17T05:03:32.122Z,8.57
2023-08-17T05:04:37.111Z,15.10
2023-08-17T05:05:40.125Z,14.68
2023-08-17T05:06:44.375Z,12.75
2023-08-17T05:07:47.465Z,13.30
2023-08-17T05:08:50.655Z,9.18
2023-08-17T05:09:53.738Z,8.75
2023-08-17T05:10:56.899Z,14.57
2023-08-17T05:11:59.802Z,12.30
2023-08-17T05:13:02.969Z,8.00
2023-08-17T05:14:05.921Z,9.65
2023-08-17T05:15:11.349Z,9.93
2023-08-17T05:16:14.685Z,10.60
2023-08-17T05:17:17.621Z,10.02
2023-08-17T05:18:20.478Z,10.13
2023-08-17T05:19:23.495Z,9.52
2023-08-17T05:20:27.020Z,11.82
2023-08-17T05:21:30.332Z,7.45
2023-08-17T05:22:33.419Z,11.50
2023-08-17T05:23:36.400Z,11.85
2023-08-17T05:24:40.077Z,10.32
2023-08-17T05:25:43.054Z,15.05
2023-08-17T05:26:46.190Z,8.57
2023-08-17T05:27:50.470Z,13.73
2023-08-17T05:28:53.631Z,9.55
2023-08-17T05:29:56.724Z,9.75
2023-08-17T05:31:08.075Z,9.68
2023-08-17T05:32:11.196Z,12.57
2023-08-17T05:33:14.305Z,12.00
2023-08-17T05:34:17.238Z,7.87
2023-08-17T05:35:20.235Z,8.13
2023-08-17T05:36:23.338Z,11.20
2023-08-17T05:37:26.520Z,11.45
2023-08-17T05:38:29.665Z,13.10
2023-08-17T05:39:33.599Z,9.82
2023-08-17T05:40:38.352Z,9.88
2023-08-17T05:41:41.372Z,8.05
2023-08-17T05:42:44.243Z,10.50
2023-08-17T05:43:47.162Z,7.97
2023-08-17T05:44:50.073Z,7.45
2023-08-17T05:45:53.508Z,7.72
2023-08-17T05:46:56.611Z,9.90
2023-08-17T05:47:59.730Z,10.88
2023-08-17T05:49:04.005Z,10.75
2023-08-17T05:50:07.641Z,7.78
2023-08-17T05:51:10.608Z,7.93
2023-08-17T05:52:14.048Z,8.23
2023-08-17T05:53:17.012Z,12.60
2023-08-17T05:54:19.945Z,10.45
2023-08-17T05:55:22.971Z,8.20
2023-08-17T05:56:25.982Z,7.18
2023-08-17T05:57:29.281Z,8.82
2023-08-17T05:58:32.237Z,8.18
2023-08-17T05:59:35.349Z,10.75
2023-08-17T06:00:38.950Z,9.27
2023-08-17T06:01:42.401Z,8.27
2023-08-17T06:02:51.239Z,7.97
2023-08-17T06:03:54.186Z,11.38
2023-08-17T06:04:57.126Z,10.88
2023-08-17T06:06:00.117Z,9.75
2023-08-17T06:07:03.142Z,9.35
2023-08-17T06:08:06.684Z,8.32
2023-08-17T06:09:10.231Z,8.85
2023-08-17T06:10:13.419Z,13.48
2023-08-17T06:11:16.390Z,10.68
2023-08-17T06:12:20.358Z,10.45
2023-08-17T06:13:23.574Z,11.38
2023-08-17T06:14:26.534Z,13.88
2023-08-17T06:15:29.503Z,9.65
2023-08-17T06:16:32.757Z,10.93
2023-08-17T06:17:35.708Z,9.05
2023-08-17T06:18:38.819Z,12.37
2023-08-17T06:19:42.098Z,12.85
2023-08-17T06:20:47.842Z,7.45
2023-08-17T06:21:50.765Z,9.63
2023-08-17T06:22:53.707Z,12.20
2023-08-17T06:23:56.622Z,11.85
2023-08-17T06:24:59.781Z,9.55
2023-08-17T06:26:02.710Z,11.77
2023-08-17T06:27:05.666Z,12.23
2023-08-17T06:28:08.670Z,8.65
2023-08-17T06:29:11.930Z,8.13
2023-08-17T06:30:15.125Z,9.10
2023-08-17T06:31:18.161Z,9.07
2023-08-17T06:32:21.207Z,10.13
2023-08-17T06:33:24.534Z,8.82
2023-08-17T06:34:27.502Z,11.93
2023-08-17T06:35:30.486Z,8.77
2023-08-17T06:36:33.990Z,10.45
2023-08-17T06:37:37.152Z,9.90
2023-08-17T06:38:40.141Z,12.80
2023-08-17T06:39:43.111Z,9.30
2023-08-17T06:40:47.253Z,10.90
2023-08-17T06:41:50.126Z,9.30
2023-08-17T06:42:55.698Z,11.40
2023-08-17T06:43:58.684Z,11.70
2023-08-17T06:45:01.763Z,12.00
2023-08-17T06:46:05.065Z,16.58
2023-08-17T06:47:08.045Z,12.57
2023-08-17T06:48:10.874Z,10.15
2023-08-17T06:49:14.094Z,10.40
2023-08-17T06:50:17.137Z,12.45
2023-08-17T06:51:20.187Z,8.73
2023-08-17T06:52:23.235Z,11.32
2023-08-17T06:53:26.136Z,14.77
2023-08-17T06:54:29.104Z,15.23
2023-08-17T06:55:32.281Z,11.07
2023-08-17T06:56:35.304Z,10.35
2023-08-17T06:57:38.369Z,11.68
2023-08-17T06:58:41.376Z,15.18
2023-08-17T06:59:47.278Z,12.98
2023-08-17T07:00:50.163Z,14.45
2023-08-17T07:01:53.223Z,12.35
2023-08-17T07:02:59.620Z,13.25
2023-08-17T07:04:04.150Z,12.10
2023-08-17T07:05:07.302Z,13.70
2023-08-17T07:06:11.230Z,12.77
2023-08-17T07:07:15.499Z,9.07
2023-08-17T07:08:18.372Z,11.45
2023-08-17T07:09:22.365Z,9.90
2023-08-17T07:10:25.364Z,9.40
2023-08-17T07:11:28.319Z,13.43
2023-08-17T07:12:31.326Z,12.02
2023-08-17T07:13:34.647Z,10.57
2023-08-17T07:14:38.609Z,11.20
2023-08-17T07:15:41.754Z,12.35
2023-08-17T07:16:44.737Z,11.40
2023-08-17T07:17:47.786Z,10.95
2023-08-17T07:18:50.993Z,9.02
2023-08-17T07:20:14.727Z,13.43
2023-08-17T07:21:17.136Z,12.68
2023-08-17T07:22:19.958Z,13.85
2023-08-17T07:23:22.958Z,12.43
2023-08-17T07:24:25.705Z,13.73
2023-08-17T07:25:28.717Z,17.92
2023-08-17T07:26:31.582Z,18.15
2023-08-17T07:27:34.650Z,10.25
2023-08-17T07:28:37.661Z,13.95
2023-08-17T07:29:40.689Z,11.65
2023-08-17T07:30:43.827Z,13.27
2023-08-17T07:31:46.928Z,11.75
2023-08-17T07:32:50.035Z,10.68
2023-08-17T07:33:53.306Z,11.98
2023-08-17T07:34:56.227Z,11.85
2023-08-17T07:35:59.684Z,12.57
2023-08-17T07:37:02.562Z,11.20
2023-08-17T07:38:09.237Z,12.88
2023-08-17T07:39:12.520Z,12.52
2023-08-17T07:40:15.508Z,15.25
2023-08-17T07:41:18.404Z,11.60
2023-08-17T07:42:21.458Z,12.35
2023-08-17T07:43:25.122Z,12.18
2023-08-17T07:44:30.258Z,21.17
2023-08-17T07:45:33.366Z,13.32
2023-08-17T07:46:36.379Z,11.75
2023-08-17T07:47:39.461Z,12.15
2023-08-17T07:48:42.497Z,12.52
2023-08-17T07:49:47.039Z,12.60
2023-08-17T07:50:52.097Z,13.98
2023-08-17T07:51:55.134Z,11.60
2023-08-17T07:52:58.170Z,11.40
2023-08-17T07:54:02.148Z,13.35
2023-08-17T07:55:06.019Z,13.90
2023-08-17T07:56:09.012Z,13.40
2023-08-17T07:57:12.026Z,11.20
2023-08-17T07:58:15.010Z,14.52
2023-08-17T07:59:18.074Z,10.90
2023-08-17T08:00:21.004Z,10.30
2023-08-17T08:01:23.983Z,11.88
2023-08-17T08:02:27.113Z,14.05
2023-08-17T08:03:30.025Z,10.55
2023-08-17T08:04:33.078Z,11.10
2023-08-17T08:05:36.064Z,12.50
2023-08-17T08:06:38.908Z,11.12
2023-08-17T08:07:43.862Z,11.02
2023-08-17T08:08:46.947Z,15.15
2023-08-17T08:09:49.992Z,10.68
2023-08-17T08:10:55.966Z,10.30
2023-08-17T08:11:58.926Z,10.50
2023-08-17T08:13:01.865Z,12.32
2023-08-17T08:14:05.519Z,14.82
2023-08-17T08:15:09.049Z,12.65
2023-08-17T08:16:12.019Z,11.65
2023-08-17T08:17:15.130Z,15.80
2023-08-17T08:18:18.811Z,12.90
2023-08-17T08:19:21.826Z,10.35
2023-08-17T08:20:24.629Z,14.18
2023-08-17T08:21:29.033Z,12.73
2023-08-17T08:22:32.078Z,16.62
2023-08-17T08:23:34.899Z,10.50
2023-08-17T08:24:38.832Z,10.55
2023-08-17T08:25:42.858Z,9.55
2023-08-17T08:26:45.677Z,11.88
2023-08-17T08:27:48.453Z,12.18
2023-08-17T08:28:51.377Z,12.13
2023-08-17T08:29:54.367Z,10.57
2023-08-17T08:31:02.768Z,13.10
2023-08-17T08:32:05.877Z,10.70
2023-08-17T08:33:08.872Z,12.30
2023-08-17T08:34:11.873Z,9.82
2023-08-17T08:35:14.870Z,11.43
2023-08-17T08:36:17.841Z,10.48
2023-08-17T08:37:20.785Z,9.80
2023-08-17T08:38:23.711Z,11.00
2023-08-17T08:39:27.756Z,11.85
2023-08-17T08:40:31.991Z,8.23
2023-08-17T08:41:35.473Z,10.00
2023-08-17T08:42:38.437Z,9.50
2023-08-17T08:43:41.368Z,9.60
2023-08-17T08:44:47.306Z,9.60
2023-08-17T08:45:52.321Z,7.60
2023-08-17T08:46:57.900Z,7.93
2023-08-17T08:48:03.156Z,11.43
2023-08-17T08:49:11.589Z,9.93
2023-08-17T08:50:20.136Z,9.32
2023-08-17T08:51:31.816Z,9.70
2023-08-17T08:52:37.147Z,8.10
2023-08-17T08:53:44.769Z,8.85
2023-08-17T08:54:51.457Z,7.07
2023-08-17T08:56:00.341Z,12.07
2023-08-17T08:57:07.733Z,8.00
2023-08-17T08:58:10.780Z,8.60
2023-08-17T08:59:13.772Z,11.10
2023-08-17T09:00:18.126Z,10.57
2023-08-17T09:01:21.209Z,7.97
2023-08-17T09:02:24.344Z,9.93
2023-08-17T09:03:28.420Z,10.27
2023-08-17T09:04:31.649Z,9.65
2023-08-17T09:05:36.109Z,11.00
2023-08-17T09:06:41.596Z,13.15
2023-08-17T09:07:45.205Z,8.77
2023-08-17T09:08:50.548Z,8.98
2023-08-17T09:09:53.987Z,7.20
2023-08-17T09:10:57.289Z,7.85
2023-08-17T09:12:00.421Z,8.30
2023-08-17T09:13:03.295Z,6.85
2023-08-17T09:14:07.945Z,8.48
2023-08-17T09:15:11.263Z,7.43
2023-08-17T09:16:14.225Z,6.40
2023-08-17T09:17:25.291Z,6.75
2023-08-17T09:18:28.296Z,5.87
2023-08-17T09:19:34.303Z,7.18
2023-08-17T09:20:49.336Z,5.87
2023-08-17T09:21:52.713Z,10.07
2023-08-17T09:22:56.110Z,8.32
2023-08-17T09:24:00.159Z,6.18
2023-08-17T09:25:03.847Z,6.55
2023-08-17T09:26:10.275Z,7.30
2023-08-17T09:27:15.306Z,10.77
2023-08-17T09:28:20.090Z,7.20
2023-08-17T09:29:24.505Z,7.07
2023-08-17T09:30:27.517Z,7.93
2023-08-17T09:31:33.817Z,9.98
2023-08-17T09:32:37.090Z,6.12
2023-08-17T09:33:45.404Z,6.12
2023-08-17T09:34:51.099Z,7.05
2023-08-17T09:35:59.406Z,6.65
2023-08-17T09:37:06.729Z,7.43
2023-08-17T09:38:10.155Z,5.75
2023-08-17T09:39:14.980Z,7.00
2023-08-17T09:40:22.261Z,9.93
2023-08-17T09:41:27.702Z,6.57
2023-08-17T09:42:32.635Z,6.40
2023-08-17T09:43:35.773Z,6.35
2023-08-17T09:44:40.258Z,6.68
2023-08-17T09:45:51.286Z,8.10
2023-08-17T09:46:57.588Z,6.85
2023-08-17T09:48:03.507Z,10.18
2023-08-17T09:49:07.276Z,6.70
2023-08-17T09:50:10.586Z,8.43
2023-08-17T09:51:17.827Z,12.00
2023-08-17T09:52:22.349Z,8.65
2023-08-17T09:53:25.861Z,7.50
2023-08-17T09:54:31.726Z,6.35
2023-08-17T09:55:35.374Z,6.78
2023-08-17T09:56:38.554Z,6.47
2023-08-17T09:57:42.833Z,7.65
2023-08-17T09:58:45.853Z,6.00
2023-08-17T09:59:53.172Z,6.50
2023-08-17T10:01:05.369Z,7.40
2023-08-17T10:02:16.875Z,7.18
2023-08-17T10:04:25.483Z,5.80
2023-08-17T10:05:31.927Z,5.97
2023-08-17T10:06:37.399Z,5.97
2023-08-17T10:07:45.718Z,5.28
2023-08-17T10:08:51.471Z,4.62
2023-08-17T10:10:01.418Z,5.07
2023-08-17T10:11:08.296Z,5.20
2023-08-17T10:12:13.791Z,5.12
2023-08-17T10:13:41.134Z,5.68
2023-08-17T10:14:50.857Z,5.45
2023-08-17T10:16:04.772Z,6.68
2023-08-17T10:17:14.524Z,6.25
2023-08-17T10:18:36.175Z,5.07
2023-08-17T10:19:54.464Z,6.75
2023-08-17T10:21:08.781Z,5.12
2023-08-17T10:22:28.012Z,4.85
2023-08-17T10:23:32.119Z,4.78
2023-08-17T10:24:37.692Z,5.72
2023-08-17T10:25:42.652Z,5.20
2023-08-17T10:26:46.992Z,6.75
2023-08-17T10:27:53.288Z,7.57
2023-08-17T10:29:01.559Z,8.80
2023-08-17T10:30:09.496Z,6.32
2023-08-17T10:31:13.701Z,5.65
2023-08-17T10:32:17.308Z,6.65
2023-08-17T10:33:21.365Z,4.78
2023-08-17T10:34:25.288Z,6.57
2023-08-17T10:35:28.793Z,11.23
2023-08-17T10:36:33.612Z,4.90
2023-08-17T10:37:36.761Z,4.53
2023-08-17T10:38:40.311Z,5.40
2023-08-17T10:39:48.462Z,6.87
2023-08-17T10:42:37.763Z,4.95
2023-08-17T10:44:00.552Z,5.03
2023-08-17T10:45:30.248Z,5.50
2023-08-17T10:46:38.936Z,6.07
2023-08-17T10:47:42.201Z,6.22
2023-08-17T10:48:45.938Z,7.43
2023-08-17T10:50:21.685Z,4.72
2023-08-17T10:51:26.166Z,4.87
2023-08-17T10:52:36.071Z,4.97
2023-08-17T10:53:43.961Z,3.87
2023-08-17T10:54:47.022Z,5.82
2023-08-17T10:55:53.090Z,4.87
2023-08-17T10:56:56.358Z,4.30
2023-08-17T10:57:59.490Z,6.95
2023-08-17T10:59:03.350Z,6.65
2023-08-17T11:00:31.078Z,4.28
2023-08-17T11:01:40.439Z,4.35
2023-08-17T11:02:46.835Z,4.05
2023-08-17T11:04:13.978Z,5.00
2023-08-17T11:05:51.362Z,4.70
2023-08-17T11:07:05.341Z,4.45
2023-08-17T11:08:10.889Z,5.05
2023-08-17T11:09:18.578Z,4.00
2023-08-17T11:10:21.618Z,4.90
2023-08-17T11:11:25.578Z,4.53
2023-08-17T11:12:29.251Z,6.18
2023-08-17T11:13:34.803Z,4.68
2023-08-17T11:14:37.848Z,7.25
2023-08-17T11:15:45.022Z,7.25
2023-08-17T11:16:48.692Z,7.37
2023-08-17T11:17:51.640Z,5.07
2023-08-17T11:18:54.945Z,6.93
2023-08-17T11:19:57.836Z,4.85
2023-08-17T11:21:02.132Z,6.18
2023-08-17T11:22:05.274Z,7.32
2023-08-17T11:23:09.974Z,8.38
2023-08-17T11:24:13.183Z,9.18
2023-08-17T11:25:16.536Z,5.18
2023-08-17T11:26:20.623Z,5.00
2023-08-17T11:27:23.858Z,5.35
2023-08-17T11:28:26.990Z,6.37
2023-08-17T11:29:33.527Z,5.72
2023-08-17T11:30:40.447Z,8.73
2023-08-17T11:31:44.063Z,6.00
2023-08-17T11:32:47.449Z,5.70
2023-08-17T11:33:55.698Z,5.70
2023-08-17T11:35:00.156Z,9.15
2023-08-17T11:36:04.638Z,5.45
2023-08-17T11:37:07.542Z,6.80
2023-08-17T11:38:10.643Z,6.78
2023-08-17T11:39:15.452Z,9.13
2023-08-17T11:40:18.921Z,6.00
2023-08-17T11:41:22.000Z,6.55
2023-08-17T11:42:25.119Z,5.22
2023-08-17T11:43:33.339Z,7.65
2023-08-17T11:44:36.440Z,4.55
2023-08-17T11:45:40.590Z,5.18
2023-08-17T11:46:43.659Z,5.40
2023-08-17T11:47:48.835Z,5.28
2023-08-17T11:48:55.072Z,8.00
2023-08-17T11:50:10.835Z,5.22
2023-08-17T11:51:32.578Z,6.10
2023-08-17T11:52:37.879Z,6.20
2023-08-17T11:53:41.345Z,5.43
2023-08-17T11:54:45.112Z,6.47
2023-08-17T11:55:48.697Z,6.10
2023-08-17T11:56:51.778Z,7.30
2023-08-17T11:57:54.887Z,5.07
2023-08-17T11:58:57.981Z,6.53
2023-08-17T12:00:02.347Z,5.07
2023-08-17T12:01:12.009Z,5.28
2023-08-17T12:02:15.318Z,7.53
2023-08-17T12:03:20.363Z,5.45
2023-08-17T12:04:24.536Z,6.90
2023-08-17T12:05:30.622Z,5.12
2023-08-17T12:06:33.933Z,5.25
2023-08-17T12:07:37.580Z,7.05
2023-08-17T12:08:51.801Z,5.32
2023-08-17T12:09:55.228Z,6.80
2023-08-17T12:10:58.222Z,7.25
2023-08-17T12:12:02.145Z,6.07
2023-08-17T12:13:05.338Z,5.00
2023-08-17T12:14:12.816Z,5.95
2023-08-17T12:15:18.328Z,7.05
2023-08-17T12:16:23.989Z,5.85
2023-08-17T12:17:27.084Z,5.50
2023-08-17T12:18:33.521Z,5.68
2023-08-17T12:19:36.355Z,5.82
2023-08-17T12:20:42.144Z,5.10
2023-08-17T12:21:47.414Z,6.53
2023-08-17T12:22:50.508Z,5.15
2023-08-17T12:23:53.668Z,6.78
2023-08-17T12:24:57.868Z,5.40
2023-08-17T12:26:00.827Z,5.45
2023-08-17T12:27:04.764Z,6.53
2023-08-17T12:28:07.830Z,4.93
2023-08-17T12:29:11.201Z,4.97
2023-08-17T12:30:26.924Z,7.20
2023-08-17T12:31:30.843Z,5.90
2023-08-17T12:32:34.049Z,8.75
2023-08-17T12:33:37.114Z,5.93
2023-08-17T12:34:40.206Z,5.60
2023-08-17T12:35:43.408Z,6.37
2023-08-17T12:36:46.433Z,6.40
2023-08-17T12:37:49.792Z,6.97
2023-08-17T12:38:53.268Z,5.37
2023-08-17T12:39:56.396Z,5.45
2023-08-17T12:40:59.329Z,5.78
2023-08-17T12:42:02.419Z,5.22
2023-08-17T12:43:05.292Z,5.37
2023-08-17T12:44:10.820Z,5.62
2023-08-17T12:45:14.064Z,6.20
2023-08-17T12:46:17.219Z,5.82
2023-08-17T12:47:20.129Z,5.90
2023-08-17T12:48:23.190Z,5.68
2023-08-17T12:49:26.080Z,6.25
2023-08-17T12:50:29.128Z,6.78
2023-08-17T12:51:32.075Z,5.45
2023-08-17T12:52:35.738Z,5.15
2023-08-17T12:53:38.760Z,5.75
2023-08-17T12:54:41.756Z,5.62
2023-08-17T12:55:44.822Z,5.25
2023-08-17T12:56:47.926Z,5.10
2023-08-17T12:57:51.007Z,4.85
2023-08-17T12:58:53.994Z,6.10
2023-08-17T12:59:57.150Z,7.85
2023-08-17T13:01:00.206Z,6.95
2023-08-17T13:02:03.503Z,5.22
2023-08-17T13:03:06.561Z,6.12
2023-08-17T13:04:09.731Z,4.72
2023-08-17T13:05:12.798Z,5.35
2023-08-17T13:06:15.788Z,5.93
2023-08-17T13:07:19.090Z,5.37
2023-08-17T13:08:22.214Z,4.32
2023-08-17T13:09:25.182Z,4.50
2023-08-17T13:10:28.115Z,7.25
2023-08-17T13:11:31.021Z,8.25
2023-08-17T13:12:33.963Z,5.45
2023-08-17T13:13:37.489Z,5.05
2023-08-17T13:14:40.615Z,5.00
2023-08-17T13:15:43.654Z,6.35
2023-08-17T13:16:46.662Z,5.87
2023-08-17T13:17:49.689Z,7.57
2023-08-17T13:18:52.771Z,6.18
2023-08-17T13:19:55.856Z,8.93
2023-08-17T13:20:58.838Z,7.45
2023-08-17T13:22:04.124Z,5.62
2023-08-17T13:23:07.331Z,6.57
2023-08-17T13:24:10.414Z,5.95
2023-08-17T13:25:13.644Z,7.95
2023-08-17T13:26:16.587Z,7.70
2023-08-17T13:27:19.452Z,9.45
2023-08-17T13:28:22.611Z,5.00
2023-08-17T13:29:25.911Z,6.93
2023-08-17T13:30:29.179Z,7.25
2023-08-17T13:31:32.647Z,6.87
2023-08-17T13:32:35.851Z,5.78
2023-08-17T13:33:38.946Z,6.05
2023-08-17T13:34:41.965Z,8.82
2023-08-17T13:35:45.081Z,6.25
2023-08-17T13:36:47.978Z,5.97
2023-08-17T13:37:59.011Z,7.57
2023-08-17T13:39:02.135Z,7.15
2023-08-17T13:40:05.871Z,7.22
2023-08-17T13:41:08.844Z,5.57
2023-08-17T13:42:11.934Z,5.85
2023-08-17T13:43:14.919Z,5.32
2023-08-17T13:44:17.854Z,7.10
2023-08-17T13:45:20.902Z,6.35
2023-08-17T13:46:24.074Z,5.70
2023-08-17T13:47:27.356Z,5.93
2023-08-17T13:48:30.405Z,7.25
2023-08-17T13:49:33.528Z,5.15
2023-08-17T13:50:39.718Z,6.28
2023-08-17T13:51:43.025Z,6.47
2023-08-17T13:52:46.494Z,5.93
2023-08-17T13:53:49.426Z,6.60
2023-08-17T13:54:52.351Z,6.28
2023-08-17T13:55:55.324Z,6.47
2023-08-17T13:56:58.258Z,6.65
2023-08-17T13:58:01.406Z,7.00
2023-08-17T13:59:04.568Z,5.87
2023-08-17T14:00:08.559Z,6.82
2023-08-17T14:01:13.011Z,5.43
2023-08-17T14:02:16.039Z,6.28
2023-08-17T14:03:19.020Z,5.87
2023-08-17T14:04:22.010Z,6.57
2023-08-17T14:05:25.025Z,6.32